الصفحة الرئيسية
METAR-TAF:

METAR-TAF

مطار :

مطار سولت لايك سيتي الدولي

سولت ليك سيتي, يوتا, الولايات المتحدة

دائرة عرض: 40-46-41N, خط طول: 111-58-10W, ارتفاع: 1288 متر

مراقبة الطقس الحالي

تاريخ ووقت الإصدار 58 دقيقة قبل الساعة 06:54UTC
ريح 4 عقدة من الجنوب
درجة الحرارة -3°درجة مئوية
الرطوبة 63%
ضغط 1004 hPa
الرؤية: 16.1 كم
غيوم قليلة على ارتفاع 6000 قدم
غيوم مفككة على ارتفاع 7500 قدم
ملبد بالغيوم على ارتفاع 12000 قدم

METAR: KSLC 210654Z 17004KT 10SM FEW060 BKN075 OVC120 M03/M09 A2964 RMK AO2 SLP049 T10281089 400061056

زمن: 00:52 (07:52 UTC)

توقعات

تاريخ ووقت الإصدار 2ساعات و 6 دقيقة قبل الساعة 05:46UTC
التوقعات صالحة من21 الساعة 06 UTC إلى 22 الساعة 12 UTC
ريح 5 عقدة من الجنوب/الجنوب الشرقي
الرؤية: 10 كم
غيوم متفرقة على ارتفاع 6000 قدم
غيوم مفككة على ارتفاع 10000 قدم
من 21 الساعة 1900 UTC
ريح 12 عقدة من الشمال
الرؤية: 10 كم
غيوم متفرقة على ارتفاع 11000 قدم
من 22 الساعة 0200 UTC
ريح 6 عقدة من الشمال
الرؤية: 10 كم
غيوم قليلة على ارتفاع 11000 قدم

TAF: KSLC 210546Z 2106/2212 16005KT P6SM SCT060 BKN100 FM211900 01012KT P6SM SCT110 FM220200 35006KT P6SM FEW110

أرصاد الطقس والتوقعات من أكثر من 4000 مطار (تقارير الطقس للمطار METAR والتنبؤ بالطقس بالمطارTAF).

المحطات المتاحة هي النقط الصفراء والحمراء على الخريطة.

حرك المؤشر فوق النقطة لمعرفة اسم المحطة.

ثم انقر لمعرفة أرصاد وتوقعات الطقس.

لتغيير الخارطة: اضغط على الأزرار الخضراء مع رمز الصليب الأسود للتكبير. على الزر الأخضر مع شرطة للتصغير، أو على الأسهم الخضراء للخرائط المجاورة.


METAR-TAF: